Time;durP1;ratioP1;P1;durP2;ratioP2;P2;SDS_P1;SDS_P2;PMS_P1;PMS_P2;Temp;Humidity;BMP_temperature;BMP_pressure;BME280_temperature;BME280_humidity;BME280_pressure;Samples;Min_cycle;Max_cycle;Signal;HPM_P1;HPM_P2
2022/08/03 00:02:20;;;;;;;11.23;4.25;;;25.80;50.30;24.70;101127.00;;;;5082025;28;20056;-71
2022/08/03 00:05:07;;;;;;;16.17;5.43;;;25.80;50.30;24.70;101123.00;;;;5090183;28;20551;-71
2022/08/03 00:07:53;;;;;;;12.60;5.27;;;25.80;50.40;24.70;101123.00;;;;5087310;28;20477;-71
2022/08/03 00:10:39;;;;;;;9.82;4.00;;;25.80;50.40;24.70;101118.00;;;;5083562;28;20474;-71
2022/08/03 00:13:26;;;;;;;10.88;4.18;;;25.80;50.40;24.70;101124.00;;;;5073968;28;20059;-71
2022/08/03 00:16:12;;;;;;;11.15;4.32;;;25.80;50.40;24.70;101122.00;;;;5091521;28;20039;-71
2022/08/03 00:18:58;;;;;;;10.35;4.32;;;25.70;50.30;24.70;101100.00;;;;5093983;28;20066;-71
2022/08/03 00:21:44;;;;;;;10.13;4.22;;;25.80;50.40;24.70;101116.00;;;;5089026;28;20067;-71
2022/08/03 00:24:30;;;;;;;13.00;4.43;;;25.80;50.50;24.70;101105.00;;;;5083612;28;20040;-71
2022/08/03 00:27:16;;;;;;;10.85;4.30;;;25.70;50.40;24.70;101104.00;;;;5088382;28;20036;-71
2022/08/03 00:30:03;;;;;;;9.07;4.03;;;25.70;50.50;24.70;101105.00;;;;5085326;28;20458;-71
2022/08/03 00:32:49;;;;;;;7.93;3.40;;;25.70;50.50;24.70;101110.00;;;;5086479;28;20432;-71
2022/08/03 00:35:35;;;;;;;11.40;4.00;;;25.70;50.50;24.70;101112.00;;;;5089873;28;20047;-71
2022/08/03 00:38:21;;;;;;;7.75;3.30;;;25.70;50.50;24.70;101110.00;;;;5076091;28;20137;-71
2022/08/03 00:41:07;;;;;;;5.82;3.17;;;25.70;50.50;24.70;101109.00;;;;5083601;28;20540;-71
2022/08/03 00:43:53;;;;;;;9.15;3.67;;;25.70;50.50;24.70;101113.00;;;;5082816;28;20345;-71
2022/08/03 00:46:39;;;;;;;10.60;3.60;;;25.70;50.50;24.70;101107.00;;;;5094504;28;20043;-71
2022/08/03 00:49:25;;;;;;;10.02;3.63;;;25.70;50.50;24.70;101112.00;;;;5071733;28;20036;-71
2022/08/03 00:52:12;;;;;;;6.40;2.72;;;25.70;50.60;24.70;101118.00;;;;5081110;28;20039;-71
2022/08/03 00:54:59;;;;;;;6.88;2.83;;;25.70;50.60;24.70;101105.00;;;;5072271;28;20047;-71
2022/08/03 00:57:45;;;;;;;8.32;3.03;;;25.70;50.70;24.60;101116.00;;;;5073274;28;20040;-71
2022/08/03 01:00:32;;;;;;;6.00;3.35;;;25.60;50.60;24.60;101113.00;;;;5073693;28;20051;-71
2022/08/03 01:03:18;;;;;;;6.05;2.35;;;25.70;50.70;24.60;101117.00;;;;5072670;28;20588;-71
2022/08/03 01:06:32;;;;;;;8.70;2.95;;;25.70;50.70;24.60;101108.00;;;;5086340;28;20032;-71
2022/08/03 01:09:26;;;;;;;5.65;2.92;;;25.60;50.70;24.60;101107.00;;;;5083194;28;20043;-71
2022/08/03 01:12:34;;;;;;;4.93;2.55;;;25.70;50.70;24.60;101105.00;;;;5073431;28;20040;-71
2022/08/03 01:15:33;;;;;;;7.88;2.40;;;25.60;50.70;24.60;101105.00;;;;5077012;28;20043;-71
2022/08/03 01:18:25;;;;;;;6.45;2.90;;;25.60;50.70;24.60;101108.00;;;;5069650;28;20041;-71
2022/08/03 01:21:17;;;;;;;4.60;2.65;;;25.60;50.70;24.60;101105.00;;;;5072533;28;20398;-71
2022/08/03 01:24:43;;;;;;;4.20;2.33;;;25.60;50.80;24.60;101102.00;;;;5077255;28;20036;-71
2022/08/03 01:27:53;;;;;;;5.75;2.17;;;25.60;50.90;24.60;101103.00;;;;5075287;28;20032;-71
2022/08/03 01:30:40;;;;;;;5.40;2.63;;;25.60;51.00;24.60;101099.00;;;;5074950;28;20067;-71
2022/08/03 01:33:50;;;;;;;4.57;2.03;;;25.50;50.80;24.60;101095.00;;;;5074083;28;20543;-71
2022/08/03 01:36:39;;;;;;;5.40;2.63;;;25.60;50.90;24.60;101093.00;;;;5065568;28;20043;-71
2022/08/03 01:39:25;;;;;;;5.20;2.50;;;25.60;50.90;24.60;101099.00;;;;5069190;28;20040;-71
2022/08/03 01:42:11;;;;;;;4.70;2.53;;;25.60;50.90;24.60;101092.00;;;;5071036;28;20066;-71
2022/08/03 01:44:57;;;;;;;4.18;2.20;;;25.50;50.90;24.60;101090.00;;;;5055894;28;20051;-71
2022/08/03 01:47:44;;;;;;;5.32;2.33;;;25.60;51.00;24.60;101100.00;;;;5068012;28;20273;-71
2022/08/03 01:50:31;;;;;;;3.88;2.10;;;25.50;51.00;24.60;101088.00;;;;5071855;28;20181;-71
2022/08/03 01:53:17;;;;;;;5.40;1.73;;;25.50;51.00;24.60;101099.00;;;;5071874;28;20259;-71
2022/08/03 01:56:03;;;;;;;3.13;1.73;;;25.50;51.00;24.60;101087.00;;;;5073012;28;20138;-71
2022/08/03 01:58:49;;;;;;;4.78;2.30;;;25.50;51.70;24.60;101085.00;;;;5075472;28;20122;-71
2022/08/03 02:01:36;;;;;;;5.15;2.35;;;25.50;51.00;24.60;101087.00;;;;5061664;28;20036;-71
2022/08/03 02:04:22;;;;;;;3.03;1.90;;;25.50;51.00;24.60;101083.00;;;;5073379;28;20028;-71
2022/08/03 02:07:08;;;;;;;3.92;1.80;;;25.50;51.00;24.60;101085.00;;;;5060365;28;20032;-71
2022/08/03 02:09:55;;;;;;;5.00;2.17;;;25.50;51.00;24.60;101088.00;;;;5073288;28;20033;-71
2022/08/03 02:12:43;;;;;;;3.53;1.98;;;25.50;51.00;24.60;101089.00;;;;5072124;28;20036;-71
2022/08/03 02:15:29;;;;;;;2.85;1.90;;;25.50;51.00;24.60;101087.00;;;;5075424;28;20063;-71
2022/08/03 02:18:15;;;;;;;3.05;2.03;;;25.50;51.00;24.50;101092.00;;;;5070806;28;20092;-71
2022/08/03 02:21:03;;;;;;;2.95;2.00;;;25.50;51.00;24.60;101081.00;;;;5071492;28;20038;-71
2022/08/03 02:23:49;;;;;;;2.45;1.80;;;25.50;51.00;24.50;101089.00;;;;5073228;28;20493;-71
2022/08/03 02:26:35;;;;;;;3.78;2.10;;;25.50;51.00;24.50;101080.00;;;;5070520;28;20412;-71
2022/08/03 02:29:25;;;;;;;3.00;1.70;;;25.50;51.00;24.50;101079.00;;;;5085410;28;20318;-71
2022/08/03 02:32:17;;;;;;;2.67;1.90;;;25.50;51.00;24.50;101080.00;;;;5078571;28;20036;-71
2022/08/03 02:35:05;;;;;;;3.10;1.75;;;25.50;51.00;24.50;101083.00;;;;5067813;28;20410;-71
2022/08/03 02:37:56;;;;;;;2.95;1.67;;;25.50;51.00;24.50;101086.00;;;;5072460;28;20202;-71
2022/08/03 02:40:43;;;;;;;3.47;1.92;;;25.50;51.70;24.50;101083.00;;;;5068303;28;20036;-71
2022/08/03 02:43:29;;;;;;;2.53;1.70;;;25.40;50.90;24.50;101081.00;;;;5073829;28;20040;-71
2022/08/03 02:46:18;;;;;;;3.45;1.58;;;25.50;51.70;24.50;101089.00;;;;5065110;28;20036;-71
2022/08/03 02:49:04;;;;;;;2.92;1.88;;;25.50;51.00;24.50;101082.00;;;;5055087;28;20044;-71
2022/08/03 02:51:51;;;;;;;5.25;1.98;;;25.50;51.00;24.50;101088.00;;;;5076771;28;20028;-71
2022/08/03 02:54:37;;;;;;;3.30;2.00;;;25.50;51.00;24.50;101085.00;;;;5072299;28;20421;-71
2022/08/03 02:57:25;;;;;;;2.35;2.03;;;25.50;51.00;24.50;101081.00;;;;5062414;28;20090;-71
2022/08/03 03:00:11;;;;;;;4.18;2.28;;;25.50;51.10;24.50;101087.00;;;;5075085;28;20513;-71
2022/08/03 03:02:59;;;;;;;2.40;1.58;;;25.50;51.20;24.50;101081.00;;;;5065904;28;20054;-71
2022/08/03 03:05:45;;;;;;;3.45;2.22;;;25.50;51.30;24.50;101082.00;;;;5074801;28;20028;-71
2022/08/03 03:08:31;;;;;;;5.50;1.88;;;25.50;51.20;24.50;101080.00;;;;5070532;28;20040;-71
2022/08/03 03:11:19;;;;;;;2.65;1.52;;;25.50;51.30;24.50;101086.00;;;;5074932;28;20036;-71
2022/08/03 03:14:06;;;;;;;2.17;1.80;;;25.50;51.40;24.50;101075.00;;;;5061463;28;20074;-71
2022/08/03 03:16:52;;;;;;;3.65;2.20;;;25.50;51.40;24.50;101075.00;;;;5072707;28;20469;-71
2022/08/03 03:19:39;;;;;;;3.00;1.70;;;25.40;51.30;24.50;101093.00;;;;5077600;28;20048;-71
2022/08/03 03:22:26;;;;;;;4.93;2.05;;;25.40;51.30;24.50;101073.00;;;;5068604;28;20131;-71
2022/08/03 03:25:12;;;;;;;2.65;1.77;;;25.40;51.20;24.50;101084.00;;;;5063726;28;20089;-71
2022/08/03 03:28:01;;;;;;;4.63;2.05;;;25.50;51.30;24.50;101085.00;;;;5070107;28;20059;-71
2022/08/03 03:30:47;;;;;;;2.85;1.73;;;25.40;51.30;24.50;101089.00;;;;5075942;28;20102;-71
2022/08/03 03:33:34;;;;;;;3.10;1.75;;;25.40;51.20;24.50;101085.00;;;;5073042;28;20044;-71
2022/08/03 03:36:20;;;;;;;3.05;1.90;;;25.50;51.40;24.40;101080.00;;;;5072557;28;20047;-71
2022/08/03 03:39:06;;;;;;;4.22;1.63;;;25.40;51.30;24.50;101082.00;;;;5074519;28;20032;-71
2022/08/03 03:41:52;;;;;;;3.63;2.00;;;25.50;51.40;24.40;101081.00;;;;5071758;28;20390;-71
2022/08/03 03:44:38;;;;;;;2.70;1.67;;;25.30;51.30;24.40;101078.00;;;;5061598;28;20789;-71
2022/08/03 03:47:24;;;;;;;2.95;1.65;;;25.40;51.30;24.40;101079.00;;;;5078124;28;20040;-71
2022/08/03 03:50:10;;;;;;;3.63;1.77;;;25.40;51.30;24.40;101081.00;;;;5060603;28;20051;-71
2022/08/03 03:52:56;;;;;;;3.28;1.75;;;25.40;51.30;24.40;101089.00;;;;5076708;28;20036;-71
2022/08/03 03:55:42;;;;;;;7.43;1.77;;;25.30;51.30;24.40;101082.00;;;;5085907;28;20036;-71
2022/08/03 03:58:30;;;;;;;3.28;1.80;;;25.30;51.30;24.40;101080.00;;;;5074736;28;20044;-71
2022/08/03 04:01:16;;;;;;;2.40;1.60;;;25.30;51.20;24.40;101086.00;;;;5090550;28;20047;-71
2022/08/03 04:10:57;;;;;;;2.00;1.60;;;25.40;51.30;24.40;101079.00;;;;5085149;28;20045;-71
2022/08/03 04:13:30;;;;;;;3.47;2.00;;;25.30;51.30;24.40;101078.00;;;;5060923;28;20033;-71
2022/08/03 04:16:17;;;;;;;4.43;1.50;;;25.30;51.20;24.40;101081.00;;;;5076778;28;20044;-71
2022/08/03 04:19:25;;;;;;;;;;;25.30;51.20;24.40;101078.00;;;;5072832;28;20449;-71
2022/08/03 04:22:18;;;;;;;2.35;1.52;;;25.30;51.20;24.30;101068.00;;;;5074057;28;20274;-71
2022/08/03 04:25:08;;;;;;;2.20;1.35;;;25.40;51.20;24.40;101072.00;;;;5049079;28;20060;-71
2022/08/03 04:27:57;;;;;;;2.63;1.65;;;25.30;51.10;24.30;101079.00;;;;5052276;28;20086;-71
2022/08/03 04:30:47;;;;;;;2.63;1.50;;;25.30;51.10;24.30;101084.00;;;;5070715;28;20048;-71
2022/08/03 04:33:34;;;;;;;3.05;1.77;;;25.30;51.20;24.40;101080.00;;;;5076328;28;20047;-71
2022/08/03 04:36:24;;;;;;;2.63;2.05;;;25.40;51.30;24.40;101078.00;;;;5059750;28;20035;-71
2022/08/03 04:39:23;;;;;;;1.95;1.50;;;25.30;51.20;24.30;101083.00;;;;5054435;28;20124;-71
2022/08/03 04:42:10;;;;;;;1.90;1.40;;;25.30;51.30;24.40;101082.00;;;;5046520;28;20446;-71
2022/08/03 04:44:56;;;;;;;1.80;1.58;;;25.30;51.30;24.30;101087.00;;;;5085895;28;20047;-71
2022/08/03 04:47:42;;;;;;;3.00;1.63;;;25.30;51.30;24.30;101093.00;;;;5071913;28;20510;-71
2022/08/03 04:50:28;;;;;;;4.13;1.55;;;25.30;51.30;24.40;101087.00;;;;5074579;28;20027;-71
2022/08/03 04:53:15;;;;;;;1.90;1.60;;;25.30;51.20;24.30;101087.00;;;;5073942;28;20040;-71
2022/08/03 04:56:05;;;;;;;1.95;1.65;;;25.30;51.20;24.40;101092.00;;;;5060781;28;20048;-71
2022/08/03 04:58:51;;;;;;;2.42;1.55;;;25.20;51.10;24.40;101095.00;;;;5074870;28;20533;-71
2022/08/03 05:01:39;;;;;;;3.00;1.70;;;25.30;51.10;24.30;101090.00;;;;5090398;28;20130;-71
2022/08/03 05:04:25;;;;;;;2.08;1.42;;;25.30;51.10;24.40;101101.00;;;;5073713;28;20097;-71
2022/08/03 05:07:12;;;;;;;4.43;1.92;;;25.30;51.10;24.40;101101.00;;;;5083729;28;20035;-72
2022/08/03 05:09:58;;;;;;;2.05;1.67;;;25.20;51.00;24.40;101101.00;;;;5072654;28;20501;-71
2022/08/03 05:12:45;;;;;;;2.10;1.60;;;25.30;51.10;24.40;101095.00;;;;5085561;28;20039;-71
2022/08/03 05:15:31;;;;;;;5.22;1.98;;;25.30;51.10;24.30;101100.00;;;;5071867;28;20052;-71
2022/08/03 05:18:17;;;;;;;1.67;1.58;;;25.30;51.00;24.40;101101.00;;;;5093851;28;20043;-71
2022/08/03 05:21:03;;;;;;;2.45;1.80;;;25.30;51.00;24.40;101102.00;;;;5086599;28;20047;-71
2022/08/03 05:23:49;;;;;;;1.90;1.60;;;25.30;51.00;24.40;101093.00;;;;5082962;28;20087;-71
2022/08/03 05:26:36;;;;;;;1.85;1.58;;;25.30;51.00;24.40;101085.00;;;;5089727;28;20032;-71
2022/08/03 05:29:22;;;;;;;1.88;1.60;;;25.30;51.00;24.30;101100.00;;;;5084440;28;20363;-71
2022/08/03 05:32:08;;;;;;;2.92;1.48;;;25.30;51.00;24.40;101094.00;;;;5089582;28;20032;-71
2022/08/03 05:34:54;;;;;;;3.08;2.10;;;25.30;51.00;24.40;101099.00;;;;5083915;28;20036;-71
2022/08/03 05:37:40;;;;;;;2.05;1.85;;;25.30;51.00;24.40;101100.00;;;;5089978;28;20032;-71
2022/08/03 05:40:26;;;;;;;2.75;1.77;;;25.30;51.10;24.40;101096.00;;;;5084510;28;20458;-71
2022/08/03 05:43:12;;;;;;;2.72;1.70;;;25.30;51.00;24.40;101091.00;;;;5086943;28;20458;-71
2022/08/03 05:45:59;;;;;;;4.90;2.05;;;25.30;51.00;24.40;101090.00;;;;5086348;28;20047;-71
2022/08/03 05:48:45;;;;;;;;;;;25.30;51.00;24.30;101096.00;;;;5083213;28;20036;-71
2022/08/03 05:51:31;;;;;;;1.92;1.67;;;25.40;51.10;24.30;101084.00;;;;5089310;28;19912;-71
2022/08/03 05:54:17;;;;;;;1.65;1.50;;;25.40;51.00;24.40;101100.00;;;;5083948;28;20043;-71
2022/08/03 05:57:03;;;;;;;2.40;1.88;;;25.30;50.90;24.30;101090.00;;;;5084244;28;20047;-71
2022/08/03 05:59:50;;;;;;;3.47;1.60;;;25.40;51.00;24.40;101092.00;;;;5068633;28;20079;-71
2022/08/03 06:02:36;;;;;;;2.38;1.80;;;25.40;51.00;24.40;101093.00;;;;5087472;28;20043;-71
2022/08/03 06:05:22;;;;;;;2.53;1.85;;;25.40;51.10;24.40;101093.00;;;;5089093;28;20039;-71
2022/08/03 06:08:08;;;;;;;2.80;1.88;;;25.40;51.10;24.40;101094.00;;;;5081883;28;20389;-71
2022/08/03 06:10:54;;;;;;;3.92;2.22;;;25.40;51.20;24.40;101093.00;;;;5085009;28;20076;-71
2022/08/03 06:13:40;;;;;;;3.00;2.10;;;25.40;51.30;24.40;101101.00;;;;5081208;28;20121;-71
2022/08/03 06:16:26;;;;;;;3.75;2.25;;;25.40;51.30;24.40;101099.00;;;;5086002;28;20463;-71
2022/08/03 06:19:12;;;;;;;4.95;2.83;;;25.40;51.40;24.40;101096.00;;;;5079607;28;20508;-71
2022/08/03 06:21:58;;;;;;;7.57;2.17;;;25.40;51.60;24.40;101093.00;;;;5074080;28;20085;-71
2022/08/03 06:24:44;;;;;;;3.92;2.38;;;25.40;51.50;24.40;101093.00;;;;5082814;28;20489;-71
2022/08/03 06:27:30;;;;;;;2.80;2.17;;;25.40;51.60;24.40;101099.00;;;;5084789;28;20036;-71
2022/08/03 06:30:17;;;;;;;3.67;2.75;;;25.40;51.60;24.40;101096.00;;;;5082609;28;20039;-71
2022/08/03 06:33:03;;;;;;;3.55;2.30;;;25.40;51.70;24.40;101099.00;;;;5066155;28;20115;-71
2022/08/03 06:35:49;;;;;;;3.10;2.28;;;25.40;51.70;24.40;101103.00;;;;5077941;28;20036;-71
2022/08/03 06:38:35;;;;;;;5.05;2.30;;;25.40;51.70;24.40;101095.00;;;;5082829;28;20047;-71
2022/08/03 06:41:21;;;;;;;4.70;2.35;;;25.40;51.70;24.40;101099.00;;;;5084155;28;20040;-71
2022/08/03 06:44:08;;;;;;;16.58;2.67;;;25.40;51.60;24.40;101096.00;;;;5070310;28;20044;-71
2022/08/03 06:46:54;;;;;;;3.47;2.60;;;25.40;51.70;24.40;101102.00;;;;5084318;28;20378;-71
2022/08/03 06:49:40;;;;;;;3.95;2.40;;;25.40;51.80;24.40;101100.00;;;;5081072;28;20043;-71
2022/08/03 06:52:26;;;;;;;4.20;3.00;;;25.40;51.90;24.40;101102.00;;;;5083160;28;20037;-71
2022/08/03 06:55:12;;;;;;;4.60;2.88;;;25.40;52.00;24.40;101094.00;;;;5080222;28;20036;-71
2022/08/03 06:57:58;;;;;;;3.45;2.70;;;25.40;52.00;24.40;101104.00;;;;5081539;28;20393;-71
2022/08/03 07:00:44;;;;;;;4.05;3.08;;;25.40;52.20;24.40;101099.00;;;;5084695;28;20044;-71
2022/08/03 07:03:31;;;;;;;4.40;2.17;;;25.50;52.30;24.40;101104.00;;;;5082692;28;20417;-71
2022/08/03 07:06:17;;;;;;;4.20;2.60;;;25.40;52.30;24.40;101112.00;;;;5084303;28;20048;-71
2022/08/03 07:09:03;;;;;;;5.03;2.67;;;25.30;52.30;24.40;101106.00;;;;5080732;28;20059;-71
2022/08/03 07:11:49;;;;;;;5.25;3.03;;;25.50;52.50;24.40;101108.00;;;;5069412;28;20044;-71
2022/08/03 07:14:35;;;;;;;5.82;3.08;;;25.50;52.60;24.40;101107.00;;;;5085248;28;20044;-71
2022/08/03 07:17:22;;;;;;;4.00;2.70;;;25.50;52.70;24.40;101113.00;;;;5084087;28;20176;-71
2022/08/03 07:20:08;;;;;;;5.63;3.00;;;25.50;52.70;24.40;101118.00;;;;5085456;28;20052;-71
2022/08/03 07:22:54;;;;;;;3.90;2.78;;;25.50;52.90;24.40;101119.00;;;;5084298;28;20486;-71
2022/08/03 07:25:40;;;;;;;5.05;2.42;;;25.50;53.00;24.40;101127.00;;;;5085270;28;20039;-71
2022/08/03 07:28:26;;;;;;;5.45;3.05;;;25.50;52.90;24.40;101122.00;;;;5081890;28;20048;-71
2022/08/03 07:31:12;;;;;;;7.13;2.50;;;25.50;53.00;24.40;101126.00;;;;5082968;28;20041;-71
2022/08/03 07:33:59;;;;;;;4.43;2.25;;;25.50;53.00;24.40;101132.00;;;;5086363;28;20040;-71
2022/08/03 07:36:45;;;;;;;4.43;2.35;;;25.50;53.10;24.40;101127.00;;;;5084023;28;20079;-71
2022/08/03 07:39:31;;;;;;;5.60;2.70;;;25.50;53.20;24.40;101120.00;;;;5071899;28;20055;-71
2022/08/03 07:42:18;;;;;;;4.15;2.50;;;25.50;53.20;24.40;101126.00;;;;5073261;28;20421;-71
2022/08/03 07:45:04;;;;;;;4.05;2.53;;;25.50;53.30;24.40;101118.00;;;;5088217;28;20590;-71
2022/08/03 07:47:50;;;;;;;5.73;2.57;;;25.50;53.30;24.40;101118.00;;;;5071615;28;20036;-71
2022/08/03 07:50:37;;;;;;;8.07;2.70;;;25.50;53.40;24.40;101118.00;;;;5071396;28;20048;-71
2022/08/03 07:53:23;;;;;;;7.05;2.70;;;25.50;53.40;24.40;101122.00;;;;5086159;28;20169;-71
2022/08/03 07:56:09;;;;;;;3.58;2.10;;;25.60;53.50;24.40;101117.00;;;;5081488;28;20051;-71
2022/08/03 07:58:55;;;;;;;4.47;2.60;;;25.50;53.50;24.40;101116.00;;;;5093994;28;20035;-71
2022/08/03 08:01:41;;;;;;;8.07;2.28;;;25.50;53.60;24.40;101119.00;;;;5081431;28;20052;-71
2022/08/03 08:04:27;;;;;;;4.55;2.60;;;25.40;53.60;24.40;101116.00;;;;5088011;28;20045;-71
2022/08/03 08:07:13;;;;;;;8.55;1.95;;;25.50;53.70;24.40;101112.00;;;;5085393;28;20067;-71
2022/08/03 08:09:59;;;;;;;4.63;1.90;;;25.50;53.70;24.40;101111.00;;;;5070928;28;20104;-71
2022/08/03 08:12:45;;;;;;;2.72;1.83;;;25.60;53.80;24.40;101108.00;;;;5084984;28;20036;-70
2022/08/03 08:15:31;;;;;;;6.00;2.00;;;25.50;53.80;24.40;101111.00;;;;5086915;28;20044;-71
2022/08/03 08:18:17;;;;;;;5.50;1.60;;;25.50;53.70;24.40;101102.00;;;;5083363;28;20130;-71
2022/08/03 08:21:03;;;;;;;5.90;1.67;;;25.40;53.60;24.40;101107.00;;;;5082264;28;20244;-71
2022/08/03 08:23:49;;;;;;;4.30;1.77;;;25.60;53.70;24.50;101107.00;;;;5085854;28;20102;-71
2022/08/03 08:26:35;;;;;;;5.82;2.03;;;25.50;53.50;24.50;101105.00;;;;5080480;28;20032;-71
2022/08/03 08:29:22;;;;;;;3.80;2.13;;;25.50;53.50;24.50;101107.00;;;;5084484;28;20040;-71
2022/08/03 08:32:10;;;;;;;3.55;1.77;;;25.60;53.50;24.50;101108.00;;;;5085590;28;20513;-71
2022/08/03 08:34:56;;;;;;;3.13;1.88;;;25.50;53.40;24.50;101108.00;;;;5083656;28;20047;-71
2022/08/03 08:37:42;;;;;;;3.67;1.25;;;25.50;53.50;24.50;101107.00;;;;5082716;28;20040;-71
2022/08/03 08:40:29;;;;;;;2.20;1.52;;;25.60;53.60;24.50;101108.00;;;;5069356;28;20132;-71
2022/08/03 08:43:15;;;;;;;4.25;1.45;;;25.60;53.70;24.50;101095.00;;;;5067708;28;20043;-71
2022/08/03 08:46:01;;;;;;;3.15;1.40;;;25.60;53.70;24.50;101111.00;;;;5042234;28;20374;-71
2022/08/03 08:48:47;;;;;;;5.63;1.70;;;25.60;53.70;24.50;101101.00;;;;5071563;28;20040;-71
2022/08/03 08:51:38;;;;;;;4.63;1.63;;;25.60;53.70;24.50;101108.00;;;;5086672;28;20041;-71
2022/08/03 08:54:24;;;;;;;1.75;0.98;;;25.60;53.60;24.50;101106.00;;;;5085756;28;20456;-71
2022/08/03 08:57:11;;;;;;;4.00;1.35;;;25.60;53.60;24.50;101123.00;;;;5074206;28;20051;-71
2022/08/03 08:59:57;;;;;;;5.32;1.20;;;25.60;53.70;24.50;101121.00;;;;5084232;28;20512;-71
2022/08/03 09:02:43;;;;;;;6.90;1.65;;;25.60;53.50;24.50;101113.00;;;;5068897;28;20175;-71
2022/08/03 09:05:31;;;;;;;3.60;1.65;;;25.60;53.60;24.50;101124.00;;;;5071487;28;20501;-71
2022/08/03 09:08:17;;;;;;;5.18;1.38;;;25.70;53.60;24.60;101121.00;;;;5070337;28;20525;-71
2022/08/03 09:11:03;;;;;;;2.47;1.77;;;25.60;53.50;24.50;101119.00;;;;5069413;28;20046;-71
2022/08/03 09:13:49;;;;;;;3.75;1.20;;;25.70;53.70;24.60;101116.00;;;;5084322;28;20048;-71
2022/08/03 09:16:35;;;;;;;2.65;1.35;;;25.70;53.70;24.60;101112.00;;;;5070421;28;20040;-71
2022/08/03 09:19:21;;;;;;;5.18;1.60;;;25.70;53.60;24.60;101125.00;;;;5088529;28;20500;-71
2022/08/03 09:22:13;;;;;;;3.40;1.35;;;25.70;53.60;24.60;101119.00;;;;5068536;28;20089;-71
2022/08/03 09:25:02;;;;;;;3.55;1.75;;;25.70;53.70;24.60;101116.00;;;;5073430;28;20127;-71
2022/08/03 09:27:48;;;;;;;4.15;1.50;;;25.70;53.70;24.60;101116.00;;;;5075367;28;20036;-71
2022/08/03 09:30:36;;;;;;;4.47;1.80;;;25.70;53.60;24.60;101109.00;;;;5085830;28;20081;-71
2022/08/03 09:33:22;;;;;;;1.92;1.42;;;25.70;54.40;24.60;101111.00;;;;5071175;28;20044;-71
2022/08/03 09:36:08;;;;;;;4.20;1.67;;;25.70;53.60;24.60;101111.00;;;;5057201;28;20047;-71
2022/08/03 09:39:05;;;;;;;4.10;1.38;;;25.70;53.60;24.60;101117.00;;;;5078203;28;20135;-71
2022/08/03 09:42:14;;;;;;;4.90;1.40;;;25.70;53.60;24.60;101119.00;;;;5060877;28;20040;-71
2022/08/03 09:45:00;;;;;;;4.78;1.27;;;25.80;53.70;24.60;101113.00;;;;5080902;28;20497;-71
2022/08/03 09:47:46;;;;;;;3.42;1.67;;;25.80;53.50;24.60;101113.00;;;;5084986;28;20465;-72
2022/08/03 09:50:48;;;;;;;3.88;1.55;;;25.80;53.60;24.60;101113.00;;;;5084726;28;20051;-71
2022/08/03 09:53:56;;;;;;;4.03;1.40;;;25.70;53.50;24.60;101117.00;;;;5085832;28;20039;-71
2022/08/03 09:56:44;;;;;;;4.63;1.40;;;25.80;53.60;24.60;101117.00;;;;5075496;28;20044;-71
2022/08/03 09:59:31;;;;;;;4.20;1.67;;;25.80;53.50;24.60;101112.00;;;;5071182;28;20055;-71
2022/08/03 10:02:22;;;;;;;3.42;1.52;;;25.80;53.50;24.60;101111.00;;;;5082336;28;20044;-71
2022/08/03 10:05:11;;;;;;;4.47;1.58;;;25.80;53.50;24.70;101104.00;;;;5082288;28;20119;-71
2022/08/03 10:07:57;;;;;;;4.90;1.67;;;25.80;53.50;24.70;101115.00;;;;5068144;28;20095;-71
2022/08/03 10:10:44;;;;;;;3.20;1.33;;;25.80;53.50;24.70;101108.00;;;;5083525;28;20039;-71
2022/08/03 10:13:30;;;;;;;3.83;1.33;;;25.80;53.50;24.70;101105.00;;;;5085398;28;20052;-71
2022/08/03 10:16:16;;;;;;;5.63;1.13;;;25.80;53.40;24.70;101112.00;;;;5058699;28;20129;-71
2022/08/03 10:19:04;;;;;;;3.55;1.23;;;25.80;53.50;24.70;101106.00;;;;5072893;28;20036;-71
2022/08/03 10:21:57;;;;;;;4.22;1.63;;;25.80;53.50;24.70;101106.00;;;;5084641;28;20075;-71
2022/08/03 10:25:05;;;;;;;2.95;1.42;;;25.90;53.40;24.70;101100.00;;;;5069696;28;20050;-71
2022/08/03 10:27:51;;;;;;;3.47;1.20;;;25.90;53.40;24.70;101101.00;;;;5068131;28;20035;-71
2022/08/03 10:30:38;;;;;;;4.57;1.33;;;25.90;53.40;24.70;101103.00;;;;5070314;28;20024;-71
2022/08/03 10:33:27;;;;;;;2.92;1.58;;;25.90;53.40;24.70;101104.00;;;;5071356;28;20481;-71
2022/08/03 10:36:13;;;;;;;2.38;1.73;;;25.90;53.40;24.70;101100.00;;;;5070268;28;20044;-71
2022/08/03 10:38:59;;;;;;;3.83;1.10;;;25.90;53.40;24.70;101100.00;;;;5057120;28;20039;-71
2022/08/03 10:41:45;;;;;;;3.95;1.50;;;25.90;53.30;24.70;101104.00;;;;5070314;28;20516;-71
2022/08/03 10:44:36;;;;;;;2.10;1.40;;;25.90;53.40;24.70;101107.00;;;;5074208;28;20665;-71
2022/08/03 10:47:22;;;;;;;3.22;1.55;;;25.90;53.30;24.80;101094.00;;;;5073847;28;20390;-71
2022/08/03 10:50:09;;;;;;;3.78;1.45;;;26.00;53.40;24.80;101101.00;;;;5072267;28;20047;-71
2022/08/03 10:53:05;;;;;;;2.83;1.40;;;25.90;53.20;24.80;101083.00;;;;5071756;28;20385;-71
2022/08/03 10:59:44;;;;;;;7.15;1.52;;;25.90;53.20;24.80;101089.00;;;;5088041;28;20047;-71
2022/08/03 11:03:07;;;;;;;5.35;1.90;;;26.00;53.20;24.80;101086.00;;;;5086336;28;20055;-71
2022/08/03 11:06:14;;;;;;;3.35;1.17;;;26.00;53.20;24.80;101090.00;;;;5082942;28;20122;-71
2022/08/03 11:09:09;;;;;;;2.67;1.15;;;25.90;53.20;24.80;101083.00;;;;5074960;28;20039;-71
2022/08/03 11:11:55;;;;;;;2.30;1.08;;;25.90;53.10;24.80;101088.00;;;;5084690;28;20044;-71
2022/08/03 11:14:46;;;;;;;2.47;0.98;;;25.90;53.00;24.80;101083.00;;;;5070964;28;20028;-71
2022/08/03 11:17:33;;;;;;;1.52;1.10;;;26.00;53.10;24.80;101075.00;;;;5076956;28;20062;-71
2022/08/03 11:20:47;;;;;;;3.08;1.45;;;26.00;53.00;24.80;101077.00;;;;5072139;28;20033;-71
2022/08/03 11:23:47;;;;;;;2.08;1.10;;;26.00;53.00;24.80;101074.00;;;;5080598;28;20210;-71
2022/08/03 11:26:33;;;;;;;6.97;1.60;;;26.00;53.00;24.80;101075.00;;;;5076987;28;20123;-71
2022/08/03 11:29:29;;;;;;;2.58;1.15;;;26.00;52.90;24.80;101070.00;;;;5070803;28;20492;-71
2022/08/03 11:32:47;;;;;;;2.88;1.35;;;26.00;52.80;24.80;101066.00;;;;5076504;28;20465;-71
2022/08/03 11:35:34;;;;;;;4.20;1.42;;;26.00;52.80;24.90;101063.00;;;;5085101;28;20464;-71
2022/08/03 11:38:23;;;;;;;3.03;1.00;;;26.10;52.80;24.90;101067.00;;;;5061132;28;20043;-71
2022/08/03 11:41:31;;;;;;;2.92;1.00;;;26.10;52.80;24.90;101068.00;;;;5087503;28;20039;-71
2022/08/03 11:44:39;;;;;;;6.60;1.47;;;26.00;52.60;24.90;101070.00;;;;5080897;28;20040;-71
2022/08/03 11:47:28;;;;;;;2.92;1.25;;;26.10;52.70;24.90;101056.00;;;;5066442;28;20329;-71
2022/08/03 11:50:15;;;;;;;4.10;1.20;;;26.10;52.60;24.90;101058.00;;;;5067283;28;20493;-71
2022/08/03 11:53:02;;;;;;;4.75;1.63;;;26.10;52.60;24.90;101060.00;;;;5081095;28;20039;-71
2022/08/03 11:55:48;;;;;;;4.57;1.10;;;26.10;52.50;24.90;101061.00;;;;5085389;28;20044;-71
2022/08/03 11:58:34;;;;;;;4.80;1.30;;;26.10;52.50;24.90;101059.00;;;;5088059;28;20032;-71
2022/08/03 12:01:20;;;;;;;2.92;1.42;;;26.10;52.50;24.90;101058.00;;;;5071228;28;20540;-71
2022/08/03 12:04:06;;;;;;;3.90;1.33;;;26.00;52.40;24.90;101057.00;;;;5073545;28;20051;-71
2022/08/03 12:06:59;;;;;;;6.63;1.65;;;26.10;52.50;24.90;101055.00;;;;5081728;28;20033;-71
2022/08/03 12:10:08;;;;;;;5.05;1.33;;;26.10;52.40;24.90;101058.00;;;;5083713;28;20037;-71
2022/08/03 12:12:56;;;;;;;2.58;1.00;;;26.10;52.40;24.90;101059.00;;;;5076735;28;20057;-71
2022/08/03 12:15:42;;;;;;;1.90;1.10;;;26.20;52.40;24.90;101056.00;;;;5070047;28;20047;-71
2022/08/03 12:18:28;;;;;;;2.65;1.08;;;26.10;52.30;24.90;101051.00;;;;5077726;28;20512;-71
2022/08/03 12:21:15;;;;;;;5.55;1.65;;;26.20;52.30;25.00;101053.00;;;;5066986;28;20089;-71
2022/08/03 12:24:03;;;;;;;4.45;1.02;;;26.10;52.20;25.00;101041.00;;;;5087773;28;20118;-71
2022/08/03 12:26:49;;;;;;;5.82;1.38;;;26.10;52.20;25.00;101048.00;;;;5079736;28;20549;-71
2022/08/03 12:29:35;;;;;;;3.97;0.97;;;26.20;52.20;25.00;101044.00;;;;5074035;28;20400;-71
2022/08/03 12:32:21;;;;;;;4.47;1.20;;;26.20;52.20;25.00;101042.00;;;;5074617;28;20374;-71